createdAt,value
2022-11-05T09:08:19.284Z,4.00
2022-11-05T09:39:51.114Z,1.90
2022-11-05T09:45:44.472Z,1.58
2022-11-05T09:51:37.407Z,1.50
2022-11-05T09:57:42.005Z,1.90
2022-11-05T10:03:34.650Z,1.33
2022-11-05T10:09:30.258Z,1.98
2022-11-05T10:15:26.462Z,4.40
2022-11-05T10:21:37.687Z,3.80
2022-11-05T10:27:32.179Z,1.40
2022-11-05T10:39:19.357Z,1.30
2022-11-05T10:45:18.391Z,1.40
2022-11-05T10:51:11.550Z,1.40
2022-11-05T10:57:24.212Z,1.88
2022-11-05T11:03:34.672Z,1.50
2022-11-05T11:09:32.037Z,1.50
2022-11-05T11:15:27.513Z,1.95
2022-11-05T11:21:23.342Z,1.92
2022-11-05T11:27:28.912Z,1.75
2022-11-05T11:33:22.959Z,1.63
2022-11-05T11:39:25.972Z,1.95
2022-11-05T11:45:28.088Z,1.95
2022-11-05T11:51:32.665Z,1.93
2022-11-05T11:57:26.814Z,2.25
2022-11-05T12:09:27.271Z,1.90
2022-11-05T12:15:31.430Z,2.25
2022-11-05T12:21:51.302Z,1.70
2022-11-05T12:27:51.240Z,2.13
2022-11-05T12:33:46.338Z,1.60
2022-11-05T12:39:49.628Z,2.00
2022-11-05T12:45:54.379Z,2.20
2022-11-05T12:52:07.898Z,2.05
2022-11-05T12:58:12.659Z,1.40
2022-11-05T13:04:11.275Z,1.70
2022-11-05T13:10:10.922Z,1.63
2022-11-05T13:16:10.356Z,2.17
2022-11-05T13:22:35.078Z,1.50
2022-11-05T13:36:26.030Z,2.13
2022-11-05T13:42:33.532Z,0.77
2022-11-05T13:48:49.978Z,1.92
2022-11-05T13:55:08.699Z,1.67
2022-11-05T14:01:18.467Z,1.40
2022-11-05T14:07:20.949Z,1.80
2022-11-05T14:13:37.717Z,1.00
2022-11-05T14:20:00.009Z,2.08
2022-11-05T14:26:36.855Z,2.30
2022-11-05T14:32:45.939Z,2.17
2022-11-05T14:38:47.359Z,2.25
2022-11-05T14:45:00.137Z,1.42
2022-11-05T14:50:53.209Z,3.03
2022-11-05T14:56:56.379Z,2.85
2022-11-05T15:03:05.641Z,2.92
2022-11-05T15:09:00.149Z,2.40
2022-11-05T15:15:01.538Z,2.75
2022-11-05T15:20:57.362Z,2.60
2022-11-05T15:26:58.892Z,2.38
2022-11-05T15:32:52.601Z,3.78
2022-11-05T15:39:08.113Z,3.72
2022-11-05T15:45:00.307Z,2.67
2022-11-05T15:50:53.236Z,3.33
2022-11-05T15:57:00.169Z,4.50
2022-11-05T16:02:57.890Z,4.47
2022-11-05T16:08:51.023Z,3.63
2022-11-05T16:15:00.893Z,5.60
2022-11-05T16:21:08.435Z,6.68
2022-11-05T16:27:19.384Z,5.30
2022-11-05T16:33:14.043Z,8.88
2022-11-05T16:39:07.088Z,7.05
2022-11-05T16:45:00.088Z,7.60
2022-11-05T16:50:53.671Z,8.07
2022-11-05T16:56:47.627Z,7.53
2022-11-05T17:02:40.517Z,7.28
2022-11-05T17:08:33.340Z,7.93
2022-11-05T17:14:26.040Z,7.33
2022-11-05T17:20:31.443Z,8.43
2022-11-05T17:26:26.259Z,8.38
2022-11-05T17:38:12.414Z,6.80
2022-11-05T17:44:05.678Z,8.38
2022-11-05T17:49:57.699Z,8.73
2022-11-05T17:55:50.730Z,9.70
2022-11-05T18:07:42.663Z,8.02
2022-11-05T18:13:37.269Z,8.10
2022-11-05T18:19:31.076Z,8.40
2022-11-05T18:25:23.238Z,10.80
2022-11-05T18:31:23.537Z,8.27
2022-11-05T18:37:17.931Z,8.32
2022-11-05T18:43:13.591Z,9.13
2022-11-05T18:49:16.261Z,8.48
2022-11-05T18:55:10.539Z,7.25
2022-11-05T19:01:12.481Z,6.78
2022-11-05T19:07:09.350Z,6.70
2022-11-05T19:13:02.848Z,7.38
2022-11-05T19:18:59.642Z,7.07
2022-11-05T19:24:52.778Z,6.93
2022-11-05T19:30:45.689Z,8.20
2022-11-05T19:36:38.488Z,9.20
2022-11-05T19:42:31.652Z,9.43
2022-11-05T19:48:25.300Z,11.18
2022-11-05T19:54:17.626Z,10.27
2022-11-05T20:00:11.080Z,11.37
2022-11-05T20:06:12.635Z,9.03
2022-11-05T20:12:06.670Z,11.35
2022-11-05T20:18:00.190Z,13.32
2022-11-05T20:23:55.607Z,17.33
2022-11-05T20:29:51.605Z,15.50
2022-11-05T20:35:45.265Z,16.08
2022-11-05T20:47:30.379Z,12.02
2022-11-05T20:53:22.799Z,10.32
2022-11-05T20:59:17.574Z,10.30
2022-11-05T21:05:10.779Z,10.23
2022-11-05T21:11:04.730Z,10.37
2022-11-05T21:16:57.998Z,9.57
2022-11-05T21:22:51.365Z,6.67
2022-11-05T21:28:44.020Z,9.70
2022-11-05T21:34:36.963Z,7.68
2022-11-05T21:40:33.729Z,7.60
2022-11-05T21:46:26.858Z,8.23
2022-11-05T21:52:38.179Z,8.10
2022-11-05T21:58:50.113Z,7.93
2022-11-05T22:04:48.910Z,7.38
2022-11-05T22:10:41.998Z,6.88
2022-11-05T22:16:35.139Z,8.20
2022-11-05T22:22:29.617Z,7.30
2022-11-05T22:28:24.976Z,10.30
2022-11-05T22:34:18.230Z,11.95
2022-11-05T22:40:11.334Z,11.03
2022-11-05T22:46:07.820Z,10.48
2022-11-05T22:52:02.064Z,10.20
2022-11-05T22:57:58.530Z,11.93
2022-11-05T23:03:54.101Z,12.30
2022-11-05T23:10:05.749Z,12.85
2022-11-05T23:16:17.368Z,9.70
2022-11-05T23:22:31.825Z,11.48
2022-11-05T23:28:24.266Z,13.07
2022-11-05T23:34:17.069Z,14.98
2022-11-05T23:40:13.969Z,12.52
2022-11-05T23:46:24.525Z,10.05
2022-11-05T23:52:17.208Z,9.98
2022-11-05T23:58:11.740Z,7.45
